Terminal Aerodrome Forecast
Issued by NWS Twin Cities, MN

Home | Current Version | Previous Version | Text Only | Print | Product List | Glossary On
Versions: 1 2 3 4 5 6 7 8 9 10 11 12 13 14 15 16 17 18 19 20
000
FTUS43 KMPX 241121
TAFEAU
TAF
KEAU 241121Z 2412/2512 24004KT 6SM BR OVC009
     FM241400 25006KT P6SM BKN015 BKN150
     FM250300 05006KT 2SM -SN OVC012
      TEMPO 2503/2507 1SM -SN VV006=

USA.gov is the U.S. government's official web portal to all federal, state and local government web resources and services.